Time;durP1;ratioP1;P1;durP2;ratioP2;P2;SDS_P1;SDS_P2;PMS_P1;PMS_P2;Temp;Humidity;BMP_temperature;BMP_pressure;BME280_temperature;BME280_humidity;BME280_pressure;Samples;Min_cycle;Max_cycle;Signal;HPM_P1;HPM_P2
2024/01/28 00:00:38;;;;;;;72.90;67.53;;;;;;;0.65;100.00;102199.94;5063483;28;20056;-68
2024/01/28 00:03:05;;;;;;;81.22;75.22;;;;;;;0.70;100.00;102204.88;5063165;28;20167;-68
2024/01/28 00:05:32;;;;;;;73.85;68.15;;;;;;;0.51;100.00;102205.28;5062679;28;20063;-68
2024/01/28 00:08:01;;;;;;;73.95;68.35;;;;;;;0.48;100.00;102200.25;5063098;28;20055;-68
2024/01/28 00:10:28;;;;;;;70.85;65.43;;;;;;;0.41;100.00;102202.44;5064021;28;20135;-68
2024/01/28 00:12:54;;;;;;;79.70;73.72;;;;;;;0.82;100.00;102198.81;5067942;28;20082;-68
2024/01/28 00:15:21;;;;;;;89.85;83.13;;;;;;;0.67;100.00;102210.31;5067739;28;20044;-68
2024/01/28 00:17:48;;;;;;;89.22;82.63;;;;;;;0.62;100.00;102218.47;5068287;28;20486;-67
2024/01/28 00:20:15;;;;;;;81.10;75.00;;;;;;;0.61;100.00;102221.19;5062559;28;20054;-68
2024/01/28 00:22:42;;;;;;;75.40;69.70;;;;;;;0.44;100.00;102228.38;5067198;28;20060;-68
2024/01/28 00:25:11;;;;;;;83.63;77.53;;;;;;;0.80;100.00;102226.84;5067825;28;20047;-68
2024/01/28 00:27:38;;;;;;;87.40;81.00;;;;;;;0.66;100.00;102240.84;5067427;28;20052;-68
2024/01/28 00:30:06;;;;;;;90.45;83.85;;;;;;;0.54;100.00;102233.81;5064577;28;20045;-68
2024/01/28 00:32:33;;;;;;;88.10;81.40;;;;;;;0.69;100.00;102238.00;5067303;28;20040;-68
2024/01/28 00:35:00;;;;;;;86.50;79.85;;;;;;;0.66;100.00;102243.44;5067826;28;20052;-68
2024/01/28 00:37:27;;;;;;;90.45;83.85;;;;;;;0.59;100.00;102241.38;5068703;28;20087;-68
2024/01/28 00:39:54;;;;;;;84.53;78.30;;;;;;;0.40;100.00;102250.44;5064512;28;20044;-68
2024/01/28 00:42:23;;;;;;;86.50;79.70;;;;;;;0.47;100.00;102252.66;5065614;28;20059;-68
2024/01/28 00:44:50;;;;;;;100.50;93.00;;;;;;;0.37;100.00;102252.44;5067076;28;20052;-68
2024/01/28 00:47:17;;;;;;;93.03;85.90;;;;;;;0.17;100.00;102244.13;5067346;28;20056;-68
2024/01/28 00:49:43;;;;;;;83.20;76.55;;;;;;;-0.03;100.00;102255.03;5066964;28;20055;-68
2024/01/28 00:52:13;;;;;;;92.97;85.88;;;;;;;0.07;100.00;102252.69;5065842;28;20055;-68
2024/01/28 00:54:40;;;;;;;92.93;85.85;;;;;;;0.15;100.00;102253.84;5066600;28;20059;-68
2024/01/28 00:57:07;;;;;;;95.38;88.13;;;;;;;0.04;100.00;102251.09;5066857;28;20498;-68
2024/01/28 00:59:35;;;;;;;108.20;100.32;;;;;;;0.35;100.00;102251.69;5066353;28;20060;-68
2024/01/28 01:02:02;;;;;;;116.57;108.25;;;;;;;0.31;100.00;102251.06;5064554;28;20058;-68
2024/01/28 01:04:29;;;;;;;100.43;92.40;;;;;;;0.39;100.00;102246.19;5066043;28;20059;-68
2024/01/28 01:06:56;;;;;;;92.72;85.18;;;;;;;0.27;100.00;102252.19;5066755;28;20052;-68
2024/01/28 01:09:23;;;;;;;93.00;85.63;;;;;;;0.08;100.00;102255.16;5065864;28;20417;-68
2024/01/28 01:11:50;;;;;;;92.32;85.13;;;;;;;0.21;100.00;102258.69;5065430;28;20055;-68
2024/01/28 01:14:16;;;;;;;117.05;108.72;;;;;;;0.22;100.00;102257.72;5064282;28;20805;-68
2024/01/28 01:16:45;;;;;;;112.07;103.78;;;;;;;0.39;100.00;102261.84;5065794;28;20063;-68
2024/01/28 01:19:11;;;;;;;111.82;103.72;;;;;;;0.42;100.00;102253.81;5067239;28;20740;-68
2024/01/28 01:21:38;;;;;;;104.07;96.38;;;;;;;0.35;100.00;102256.91;5060781;28;20060;-68
2024/01/28 01:24:05;;;;;;;100.35;92.57;;;;;;;0.33;100.00;102261.41;5066279;28;20047;-69
2024/01/28 01:26:32;;;;;;;102.90;95.00;;;;;;;0.37;100.00;102263.72;5063329;28;20511;-69
2024/01/28 01:28:59;;;;;;;106.22;98.40;;;;;;;0.41;100.00;102259.97;5063910;28;20520;-69
2024/01/28 01:31:26;;;;;;;119.03;110.72;;;;;;;0.37;100.00;102263.72;5066024;28;20048;-69
2024/01/28 01:33:54;;;;;;;111.38;103.47;;;;;;;0.42;100.00;102266.03;5066137;28;20053;-70
2024/01/28 01:36:21;;;;;;;101.47;93.78;;;;;;;0.40;100.00;102267.91;5065341;28;20060;-69
2024/01/28 01:38:48;;;;;;;91.57;84.78;;;;;;;0.33;100.00;102270.06;5065377;28;20047;-70
2024/01/28 01:41:15;;;;;;;89.63;83.00;;;;;;;0.22;100.00;102277.81;5066134;28;20048;-69
2024/01/28 01:43:42;;;;;;;89.00;81.97;;;;;;;0.10;100.00;102278.59;5065305;28;20788;-69
2024/01/28 01:46:11;;;;;;;102.25;94.85;;;;;;;0.07;100.00;102276.19;5065923;28;20132;-69
2024/01/28 01:48:38;;;;;;;98.13;90.88;;;;;;;0.14;100.00;102286.13;5066317;28;20499;-69
2024/01/28 01:51:07;;;;;;;92.68;85.57;;;;;;;0.05;100.00;102285.91;5066725;28;20040;-69
2024/01/28 01:53:35;;;;;;;92.65;85.65;;;;;;;-0.01;100.00;102282.72;5066156;28;20044;-69
2024/01/28 01:56:03;;;;;;;92.93;86.05;;;;;;;0.06;100.00;102282.34;5059269;28;20403;-69
2024/01/28 01:58:31;;;;;;;92.47;85.68;;;;;;;-0.25;100.00;102279.91;5066210;28;20060;-68
2024/01/28 02:00:59;;;;;;;92.32;85.43;;;;;;;-0.47;100.00;102277.81;5063124;28;20437;-68
2024/01/28 02:03:26;;;;;;;97.57;90.15;;;;;;;-0.25;100.00;102284.31;5066291;28;20063;-69
2024/01/28 02:05:53;;;;;;;96.97;89.38;;;;;;;-0.29;100.00;102281.06;5065289;28;20064;-70
2024/01/28 02:08:22;;;;;;;95.38;88.15;;;;;;;-0.10;100.00;102288.53;5066075;28;20048;-68
2024/01/28 02:10:50;;;;;;;96.78;89.57;;;;;;;-0.14;100.00;102294.09;5065105;28;20040;-67
2024/01/28 02:13:17;;;;;;;98.60;91.30;;;;;;;-0.04;100.00;102300.38;5066036;28;20059;-68
2024/01/28 02:15:44;;;;;;;99.68;92.07;;;;;;;-0.07;100.00;102304.03;5065183;28;20402;-68
2024/01/28 02:18:14;;;;;;;102.43;94.82;;;;;;;0.06;100.00;102304.09;5064606;28;20080;-68
2024/01/28 02:20:44;;;;;;;98.75;91.03;;;;;;;-0.04;100.00;102309.06;5060097;28;20055;-68
2024/01/28 02:23:19;;;;;;;100.47;92.78;;;;;;;-0.05;100.00;102309.16;5064208;28;20044;-68
2024/01/28 02:25:46;;;;;;;94.20;86.82;;;;;;;-0.13;100.00;102309.63;5062467;28;20057;-69
2024/01/28 02:28:12;;;;;;;100.53;92.82;;;;;;;0.02;100.00;102307.00;5064474;28;20126;-68
2024/01/28 02:30:39;;;;;;;98.10;90.90;;;;;;;-0.03;100.00;102307.28;5064540;28;20052;-68
2024/01/28 02:33:06;;;;;;;94.05;87.00;;;;;;;-0.07;100.00;102308.41;5064802;28;20048;-68
2024/01/28 02:35:33;;;;;;;100.25;92.55;;;;;;;0.20;100.00;102316.25;5064761;28;20060;-68
2024/01/28 02:38:00;;;;;;;104.38;96.57;;;;;;;0.00;100.00;102312.34;5064457;28;20502;-68
2024/01/28 02:40:30;;;;;;;94.22;87.05;;;;;;;-0.05;100.00;102315.22;5065020;28;20048;-68
2024/01/28 02:42:58;;;;;;;104.05;96.80;;;;;;;-0.02;100.00;102320.25;5062633;28;20051;-68
2024/01/28 02:45:25;;;;;;;103.10;96.03;;;;;;;-0.05;100.00;102309.16;5064839;28;20495;-68
2024/01/28 02:47:51;;;;;;;99.43;92.35;;;;;;;-0.19;100.00;102306.59;5063717;28;20452;-68
2024/01/28 02:50:18;;;;;;;109.53;101.82;;;;;;;-0.16;100.00;102302.00;5063472;28;20059;-67
2024/01/28 02:52:45;;;;;;;112.55;104.22;;;;;;;-0.08;100.00;102309.34;5062733;28;20053;-68
2024/01/28 02:55:14;;;;;;;113.70;105.35;;;;;;;-0.06;100.00;102316.16;5065050;28;20047;-68
2024/01/28 02:57:42;;;;;;;96.35;89.05;;;;;;;-0.08;100.00;102317.19;5065052;28;20437;-70
2024/01/28 03:00:11;;;;;;;101.70;94.28;;;;;;;-0.02;100.00;102317.63;5066960;28;20048;-69
2024/01/28 03:02:40;;;;;;;97.38;90.03;;;;;;;0.16;100.00;102326.06;5065727;28;20525;-68
2024/01/28 03:05:13;;;;;;;95.35;88.35;;;;;;;0.04;100.00;102321.63;5064290;28;20143;-69
2024/01/28 03:07:41;;;;;;;87.07;80.38;;;;;;;-0.08;100.00;102330.25;5064586;28;20482;-69
2024/01/28 03:10:08;;;;;;;85.70;79.00;;;;;;;-0.07;100.00;102326.69;5063514;28;20063;-69
2024/01/28 03:12:36;;;;;;;81.38;74.78;;;;;;;-0.03;100.00;102336.88;5063504;28;20501;-68
2024/01/28 03:15:05;;;;;;;86.43;79.93;;;;;;;-0.08;100.00;102325.03;5064631;28;20052;-69
2024/01/28 03:17:32;;;;;;;84.18;77.75;;;;;;;-0.11;100.00;102338.28;5062858;28;20575;-68
2024/01/28 03:19:59;;;;;;;86.32;79.65;;;;;;;-0.16;100.00;102330.72;5062608;28;20075;-68
2024/01/28 03:22:27;;;;;;;83.72;77.03;;;;;;;-0.05;100.00;102341.34;5061795;28;20465;-68
2024/01/28 03:24:53;;;;;;;89.22;82.25;;;;;;;-0.05;100.00;102341.34;5062815;28;20075;-69
2024/01/28 03:27:20;;;;;;;95.70;88.40;;;;;;;-0.11;100.00;102344.34;5066553;28;20049;-68
2024/01/28 03:29:47;;;;;;;92.80;85.50;;;;;;;-0.17;100.00;102342.13;5063809;28;20510;-68
2024/01/28 03:32:15;;;;;;;97.53;90.22;;;;;;;-0.07;100.00;102339.75;5062815;28;20059;-68
2024/01/28 03:34:42;;;;;;;87.88;81.18;;;;;;;-0.10;100.00;102346.00;5065052;28;20437;-67
2024/01/28 03:37:11;;;;;;;87.00;80.40;;;;;;;0.03;100.00;102353.06;5064014;28;20052;-68
2024/01/28 03:39:38;;;;;;;83.93;77.32;;;;;;;-0.05;100.00;102351.78;5063362;28;20052;-68
2024/01/28 03:42:05;;;;;;;83.22;77.03;;;;;;;-0.14;100.00;102352.38;5063079;28;20050;-67
2024/01/28 03:44:32;;;;;;;88.10;81.40;;;;;;;-0.24;100.00;102356.50;5061689;28;20044;-67
2024/01/28 03:46:59;;;;;;;81.68;75.38;;;;;;;-0.14;100.00;102360.22;5062864;28;20044;-68
2024/01/28 03:49:28;;;;;;;82.68;76.32;;;;;;;-0.09;100.00;102360.78;5063269;28;20445;-68
2024/01/28 03:51:55;;;;;;;79.20;73.05;;;;;;;-0.07;100.00;102364.09;5064981;28;20056;-68
2024/01/28 03:54:22;;;;;;;94.95;87.72;;;;;;;-0.11;100.00;102359.19;5063225;28;20048;-69
2024/01/28 03:56:49;;;;;;;95.32;88.07;;;;;;;0.67;100.00;102359.38;5061468;28;20057;-69
2024/01/28 03:59:16;;;;;;;93.50;86.70;;;;;;;-0.06;100.00;102371.03;5062107;28;20143;-69
2024/01/28 04:01:43;;;;;;;84.35;78.05;;;;;;;-0.08;100.00;102365.06;5062953;28;20080;-69
2024/01/28 04:04:10;;;;;;;90.95;83.95;;;;;;;0.94;100.00;102384.63;5063843;28;20480;-69
2024/01/28 04:06:44;;;;;;;85.55;79.10;;;;;;;0.11;100.00;102380.41;5061158;28;20132;-69
2024/01/28 04:09:12;;;;;;;72.90;67.32;;;;;;;-0.04;100.00;102382.19;5062617;28;20053;-69
2024/01/28 04:11:41;;;;;;;73.03;67.57;;;;;;;-0.12;100.00;102388.81;5061746;28;20056;-69
2024/01/28 04:14:08;;;;;;;73.75;68.10;;;;;;;-0.14;100.00;102398.56;5065267;28;20045;-69
2024/01/28 04:16:35;;;;;;;72.43;66.72;;;;;;;-0.22;100.00;102391.19;5062027;28;20057;-69
2024/01/28 04:19:02;;;;;;;73.45;67.88;;;;;;;-0.29;100.00;102397.72;5064204;28;20048;-70
2024/01/28 04:21:29;;;;;;;71.97;66.47;;;;;;;-0.28;100.00;102410.66;5060037;28;20052;-69
2024/01/28 04:23:57;;;;;;;76.88;71.22;;;;;;;-0.16;100.00;102401.25;5062289;28;20142;-69
2024/01/28 04:26:25;;;;;;;82.75;76.55;;;;;;;-0.11;100.00;102395.75;5063417;28;20414;-69
2024/01/28 04:28:51;;;;;;;87.75;81.13;;;;;;;-0.09;100.00;102406.94;5063790;28;20052;-69
2024/01/28 04:31:19;;;;;;;89.40;82.80;;;;;;;-0.25;100.00;102407.03;5061711;28;20516;-69
2024/01/28 04:33:46;;;;;;;79.30;73.20;;;;;;;-0.24;100.00;102414.78;5062942;28;20064;-69
2024/01/28 04:36:13;;;;;;;80.50;74.05;;;;;;;-0.10;100.00;102416.53;5062947;28;20489;-69
2024/01/28 04:38:44;;;;;;;84.30;77.70;;;;;;;-0.10;100.00;102416.53;5063347;28;20044;-69
2024/01/28 04:41:12;;;;;;;72.53;66.93;;;;;;;-0.17;100.00;102430.91;5061474;28;20131;-69
2024/01/28 04:43:40;;;;;;;77.72;71.85;;;;;;;-0.05;100.00;102434.56;5061789;28;20053;-69
2024/01/28 04:46:07;;;;;;;73.50;67.80;;;;;;;-0.13;100.00;102431.56;5064828;28;20056;-67
2024/01/28 04:48:34;;;;;;;66.43;61.13;;;;;;;-0.27;100.00;102435.88;5062298;28;20586;-69
2024/01/28 04:51:01;;;;;;;70.53;64.93;;;;;;;-0.10;100.00;102439.22;5063406;28;20519;-69
2024/01/28 04:53:27;;;;;;;68.57;63.22;;;;;;;0.01;100.00;102446.41;5063110;28;20048;-69
2024/01/28 04:55:54;;;;;;;73.15;67.35;;;;;;;-0.06;100.00;102443.31;5063707;28;20049;-69
2024/01/28 04:58:23;;;;;;;72.22;66.63;;;;;;;-0.07;100.00;102437.25;5063029;28;20425;-69
2024/01/28 05:00:50;;;;;;;76.78;70.97;;;;;;;-0.21;100.00;102444.25;5066490;28;20493;-67
2024/01/28 05:03:17;;;;;;;75.93;69.93;;;;;;;-0.14;100.00;102440.34;5066893;28;20139;-67
2024/01/28 05:05:44;;;;;;;84.45;78.25;;;;;;;-0.18;100.00;102439.69;5067962;28;20060;-68
2024/01/28 05:08:11;;;;;;;81.10;75.00;;;;;;;-0.25;100.00;102448.81;5067514;28;20417;-67
2024/01/28 05:10:39;;;;;;;81.60;75.55;;;;;;;-0.27;100.00;102443.72;5068422;28;20060;-69
2024/01/28 05:13:06;;;;;;;72.45;66.95;;;;;;;-0.40;100.00;102452.38;5066255;28;20063;-69
2024/01/28 05:15:34;;;;;;;73.85;68.35;;;;;;;-0.53;100.00;102447.03;5067173;28;20075;-69
2024/01/28 05:18:01;;;;;;;71.45;66.15;;;;;;;-0.56;100.00;102460.28;5065302;28;20557;-69
2024/01/28 05:20:28;;;;;;;72.70;67.10;;;;;;;-0.66;100.00;102456.53;5062475;28;20057;-69
2024/01/28 05:22:59;;;;;;;69.68;64.28;;;;;;;-0.68;100.00;102464.44;5061712;28;20060;-68
2024/01/28 05:25:29;;;;;;;66.20;61.05;;;;;;;-0.73;100.00;102456.91;5061893;28;20459;-69
2024/01/28 05:27:56;;;;;;;67.38;62.20;;;;;;;-0.54;100.00;102466.25;5065258;28;20063;-69
2024/01/28 05:30:23;;;;;;;71.65;66.25;;;;;;;-0.65;100.00;102460.81;5065545;28;20444;-69
2024/01/28 05:32:51;;;;;;;66.80;61.90;;;;;;;-0.59;100.00;102471.72;5064102;28;20059;-69
2024/01/28 05:35:18;;;;;;;67.05;61.53;;;;;;;-0.68;100.00;102482.72;5066158;28;20460;-69
2024/01/28 05:37:45;;;;;;;62.90;58.00;;;;;;;-0.66;100.00;102486.09;5064392;28;20048;-69
2024/01/28 05:40:13;;;;;;;64.32;59.50;;;;;;;-0.67;100.00;102486.16;5065632;28;20053;-69
2024/01/28 05:42:40;;;;;;;77.35;71.95;;;;;;;-0.33;100.00;102479.81;5066164;28;20080;-69
2024/01/28 05:45:07;;;;;;;72.07;66.82;;;;;;;-0.25;100.00;102485.38;5066105;28;20052;-69
2024/01/28 05:47:37;;;;;;;72.07;67.07;;;;;;;-0.51;100.00;102485.19;5065330;28;20057;-69
2024/01/28 05:50:08;;;;;;;67.25;62.35;;;;;;;-0.67;100.00;102487.00;5066046;28;20052;-68
2024/01/28 05:52:35;;;;;;;68.72;64.03;;;;;;;-0.72;100.00;102483.84;5065606;28;20084;-67
2024/01/28 05:55:02;;;;;;;67.50;62.88;;;;;;;-0.70;100.00;102490.66;5062617;28;20504;-67
2024/01/28 05:57:30;;;;;;;72.93;68.03;;;;;;;-0.72;100.00;102497.72;5066836;28;20056;-67
2024/01/28 05:59:57;;;;;;;71.00;66.20;;;;;;;-0.83;100.00;102497.47;5065328;28;20144;-67
2024/01/28 06:02:24;;;;;;;70.88;65.97;;;;;;;-0.76;100.00;102504.00;5070708;28;20515;-67
2024/01/28 06:04:51;;;;;;;76.25;71.15;;;;;;;-0.80;100.00;102512.13;5064961;28;20052;-67
2024/01/28 06:07:19;;;;;;;82.85;77.28;;;;;;;-0.75;100.00;102517.94;5066925;28;20051;-67
2024/01/28 06:09:46;;;;;;;82.47;77.07;;;;;;;-0.81;100.00;102515.69;5065005;28;20056;-67
2024/01/28 06:12:13;;;;;;;74.63;69.43;;;;;;;-0.67;100.00;102527.91;5063694;28;20056;-67
2024/01/28 06:14:39;;;;;;;69.80;64.97;;;;;;;-0.74;100.00;102530.88;5066239;28;20056;-67
2024/01/28 06:17:05;;;;;;;69.30;64.05;;;;;;;-0.78;100.00;102533.75;5065803;28;20048;-67
2024/01/28 06:19:32;;;;;;;78.70;73.43;;;;;;;-0.65;100.00;102529.50;5066654;28;20091;-67
2024/01/28 06:22:02;;;;;;;81.65;76.15;;;;;;;-0.65;100.00;102541.72;5061294;28;20049;-67
2024/01/28 06:24:31;;;;;;;84.07;78.35;;;;;;;-0.53;100.00;102527.97;5064642;28;20061;-67
2024/01/28 06:26:58;;;;;;;84.18;78.68;;;;;;;-0.44;100.00;102540.47;5065436;28;20057;-67
2024/01/28 06:29:25;;;;;;;79.40;74.07;;;;;;;-0.34;100.00;102532.94;5068244;28;20174;-67
2024/01/28 06:31:52;;;;;;;77.70;72.43;;;;;;;-0.38;100.00;102534.06;5066213;28;20739;-67
2024/01/28 06:34:20;;;;;;;77.50;72.40;;;;;;;-0.35;100.00;102537.31;5062786;28;20053;-67
2024/01/28 06:36:47;;;;;;;78.32;72.40;;;;;;;-0.22;100.00;102541.81;5065578;28;20402;-68
2024/01/28 06:39:14;;;;;;;79.30;74.10;;;;;;;-0.25;100.00;102538.44;5063027;28;20054;-67
2024/01/28 06:41:43;;;;;;;78.47;73.18;;;;;;;-0.21;100.00;102536.53;5064193;28;20053;-67
2024/01/28 06:44:10;;;;;;;78.95;73.75;;;;;;;-0.19;100.00;102534.63;5064137;28;20056;-67
2024/01/28 06:46:37;;;;;;;75.15;70.15;;;;;;;-0.15;100.00;102538.78;5063563;28;20056;-67
2024/01/28 06:49:05;;;;;;;78.80;73.50;;;;;;;-0.12;100.00;102541.19;5066026;28;20454;-67
2024/01/28 06:51:32;;;;;;;79.40;74.10;;;;;;;-0.11;100.00;102535.03;5065101;28;20139;-67
2024/01/28 06:53:59;;;;;;;75.20;70.10;;;;;;;-0.02;100.00;102533.66;5063710;28;20040;-68
2024/01/28 06:56:26;;;;;;;72.80;67.95;;;;;;;0.07;100.00;102546.16;5062603;28;20064;-67
2024/01/28 06:58:54;;;;;;;73.13;68.25;;;;;;;0.08;100.00;102549.59;5060085;28;20379;-67
2024/01/28 07:01:21;;;;;;;70.40;65.50;;;;;;;0.13;100.00;102548.38;5060477;28;20817;-69
2024/01/28 07:03:50;;;;;;;70.03;65.32;;;;;;;0.17;100.00;102544.66;5059595;28;20057;-69
2024/01/28 07:06:17;;;;;;;68.55;63.95;;;;;;;0.13;100.00;102552.78;5061109;28;20506;-69
2024/01/28 07:08:44;;;;;;;73.97;69.03;;;;;;;0.26;100.00;102553.69;5062853;28;20442;-69
2024/01/28 07:11:14;;;;;;;70.90;66.20;;;;;;;0.22;100.00;102553.06;5061476;28;20056;-69
2024/01/28 07:13:41;;;;;;;66.30;61.72;;;;;;;0.28;100.00;102548.41;4698677;28;9999765;-68
2024/01/28 07:16:10;;;;;;;66.47;62.10;;;;;;;0.39;100.00;102561.63;5051243;28;20465;-68
2024/01/28 07:18:37;;;;;;;68.13;63.72;;;;;;;0.46;100.00;102552.50;5050986;28;20110;-67
2024/01/28 07:21:05;;;;;;;66.25;62.05;;;;;;;0.49;100.00;102559.31;5051824;28;20060;-67
2024/01/28 07:23:32;;;;;;;60.45;56.45;;;;;;;0.44;100.00;102562.19;5052605;28;20035;-67
2024/01/28 07:25:59;;;;;;;57.42;53.63;;;;;;;0.44;100.00;102551.72;5054792;28;20052;-67
2024/01/28 07:28:25;;;;;;;64.82;60.72;;;;;;;0.44;100.00;102555.19;5055507;28;20056;-67
2024/01/28 07:30:53;;;;;;;75.53;70.82;;;;;;;0.81;100.00;102567.72;5053887;28;20056;-68
2024/01/28 07:33:21;;;;;;;61.72;57.88;;;;;;;0.73;100.00;102557.78;5054036;28;20466;-67
2024/01/28 07:35:48;;;;;;;54.47;50.97;;;;;;;0.64;100.00;102558.34;5050724;28;20052;-67
2024/01/28 07:38:15;;;;;;;59.03;55.35;;;;;;;0.75;100.00;102566.34;5057487;28;20425;-68
2024/01/28 07:40:41;;;;;;;57.47;53.97;;;;;;;0.73;100.00;102572.59;5056364;28;20052;-68
2024/01/28 07:43:08;;;;;;;52.72;49.42;;;;;;;0.75;100.00;102568.13;5053272;28;20051;-67
2024/01/28 07:45:37;;;;;;;55.20;51.70;;;;;;;0.91;100.00;102579.31;5051565;28;20494;-67
2024/01/28 07:48:04;;;;;;;51.80;48.47;;;;;;;0.73;100.00;102581.31;5049628;28;20054;-67
2024/01/28 07:50:33;;;;;;;56.67;53.05;;;;;;;0.89;100.00;102579.41;5056257;28;20080;-67
2024/01/28 07:53:01;;;;;;;51.78;48.35;;;;;;;0.93;100.00;102571.34;5057790;28;20055;-67
2024/01/28 07:55:28;;;;;;;51.67;48.25;;;;;;;0.86;100.00;102582.22;5053054;28;20056;-68
2024/01/28 07:57:56;;;;;;;46.45;43.35;;;;;;;0.90;100.00;102590.69;5055408;28;20048;-68
2024/01/28 08:00:23;;;;;;;48.42;45.15;;;;;;;0.95;100.00;102593.88;5060690;28;20056;-67
2024/01/28 08:02:50;;;;;;;48.83;45.53;;;;;;;0.93;100.00;102592.28;5055246;28;20084;-67
2024/01/28 08:05:17;;;;;;;49.17;45.97;;;;;;;0.91;100.00;102606.31;5056722;28;20747;-67
2024/01/28 08:07:45;;;;;;;53.90;50.20;;;;;;;1.26;100.00;102602.38;5063045;28;20497;-68
2024/01/28 08:10:12;;;;;;;49.85;46.55;;;;;;;1.00;100.00;102602.28;5060386;28;20048;-67
2024/01/28 08:12:41;;;;;;;45.55;42.45;;;;;;;0.86;100.00;102592.66;5065794;28;20048;-67
2024/01/28 08:15:08;;;;;;;49.95;46.65;;;;;;;1.01;100.00;102597.88;5063472;28;20056;-67
2024/01/28 08:17:35;;;;;;;49.53;46.30;;;;;;;1.23;100.00;102602.56;5062599;28;20063;-67
2024/01/28 08:20:03;;;;;;;51.50;48.08;;;;;;;2.10;100.00;102602.03;5063916;28;20057;-67
2024/01/28 08:22:30;;;;;;;43.17;40.38;;;;;;;1.14;100.00;102610.06;5056995;28;20197;-67
2024/01/28 08:24:58;;;;;;;43.25;40.40;;;;;;;1.18;100.00;102607.25;5065511;28;21667;-67
2024/01/28 08:27:25;;;;;;;46.45;43.20;;;;;;;1.19;100.00;102607.19;5064730;28;20049;-68
2024/01/28 08:29:52;;;;;;;46.33;43.33;;;;;;;1.34;100.00;102621.06;5064589;28;20056;-67
2024/01/28 08:32:19;;;;;;;43.03;40.05;;;;;;;1.28;100.00;102622.28;5067319;28;20048;-68
2024/01/28 08:34:48;;;;;;;44.85;41.95;;;;;;;1.37;100.00;102618.25;5068781;28;20048;-68
2024/01/28 08:37:15;;;;;;;45.88;42.88;;;;;;;1.36;100.00;102616.53;5066101;28;20504;-68
2024/01/28 08:39:45;;;;;;;52.25;48.75;;;;;;;2.17;100.00;102628.66;5058631;28;20103;-67
2024/01/28 08:42:16;;;;;;;43.80;40.90;;;;;;;1.74;100.00;102626.31;5061629;28;20071;-67
2024/01/28 08:44:43;;;;;;;44.95;41.95;;;;;;;1.60;100.00;102619.34;5067577;28;20113;-67
2024/01/28 08:47:13;;;;;;;43.92;41.03;;;;;;;1.64;100.00;102617.38;5067180;28;20056;-67
2024/01/28 08:49:39;;;;;;;41.83;39.05;;;;;;;1.64;100.00;102625.25;5068624;28;20419;-69
2024/01/28 08:52:06;;;;;;;41.58;38.75;;;;;;;1.73;100.00;102624.63;5065036;28;20052;-69
2024/01/28 08:54:34;;;;;;;48.55;45.25;;;;;;;1.53;100.00;102626.75;5066056;28;20044;-69
2024/01/28 08:57:01;;;;;;;50.42;47.05;;;;;;;1.58;100.00;102629.94;5066125;28;20048;-68
2024/01/28 08:59:29;;;;;;;51.97;48.58;;;;;;;1.45;100.00;102641.28;5067162;28;20067;-68
2024/01/28 09:01:57;;;;;;;51.00;47.60;;;;;;;1.43;100.00;102644.03;5067538;28;20510;-69
2024/01/28 09:04:24;;;;;;;53.05;49.38;;;;;;;1.69;100.00;102647.56;5066226;28;20883;-69
2024/01/28 09:06:51;;;;;;;58.42;54.42;;;;;;;1.81;100.00;102643.28;5064509;28;20076;-69
2024/01/28 09:09:18;;;;;;;52.65;49.05;;;;;;;1.87;100.00;102644.66;5068589;28;20052;-69
2024/01/28 09:11:45;;;;;;;50.00;46.50;;;;;;;1.71;100.00;102647.47;5061574;28;20059;-68
2024/01/28 09:14:12;;;;;;;50.67;47.17;;;;;;;1.89;100.00;102638.38;5067394;28;20425;-69
2024/01/28 09:16:40;;;;;;;53.35;49.65;;;;;;;1.76;100.00;102641.00;5068212;28;20056;-69
2024/01/28 09:19:07;;;;;;;57.92;54.00;;;;;;;1.67;100.00;102638.97;5067803;28;20053;-68
2024/01/28 09:21:34;;;;;;;53.28;49.67;;;;;;;1.82;100.00;102651.06;5064786;28;20052;-69
2024/01/28 09:24:01;;;;;;;52.75;49.17;;;;;;;1.79;100.00;102646.03;5057016;28;20055;-69
2024/01/28 09:26:28;;;;;;;54.92;51.33;;;;;;;1.93;100.00;102647.72;5061867;28;20052;-69
2024/01/28 09:28:55;;;;;;;59.80;54.65;;;;;;;1.95;100.00;102643.22;5064006;28;20612;-69
2024/01/28 09:31:22;;;;;;;51.10;47.70;;;;;;;1.78;100.00;102630.38;5068689;28;20076;-69
2024/01/28 09:33:49;;;;;;;52.50;49.00;;;;;;;1.97;100.00;102633.47;5066518;28;20049;-69
2024/01/28 09:36:16;;;;;;;53.10;49.53;;;;;;;2.09;100.00;102634.44;5067392;28;20152;-69
2024/01/28 09:38:43;;;;;;;52.80;49.22;;;;;;;1.89;100.00;102624.44;5065822;28;20095;-69
2024/01/28 09:41:22;;;;;;;57.15;53.42;;;;;;;2.14;100.00;102634.13;5069297;28;20056;-69
2024/01/28 09:43:49;;;;;;;61.60;57.50;;;;;;;2.00;100.00;102629.81;5066091;28;20337;-69
2024/01/28 09:46:17;;;;;;;69.78;65.38;;;;;;;2.25;100.00;102629.81;5067781;28;20056;-69
2024/01/28 09:48:45;;;;;;;72.53;67.93;;;;;;;2.61;100.00;102628.22;5064422;28;20053;-69
2024/01/28 09:51:14;;;;;;;63.50;59.38;;;;;;;2.36;100.00;102636.09;5065926;28;20048;-69
2024/01/28 09:53:43;;;;;;;67.78;63.40;;;;;;;2.71;100.00;102644.16;5063054;28;20163;-69
2024/01/28 09:56:13;;;;;;;63.75;59.55;;;;;;;2.42;100.00;102640.94;5063075;28;20052;-67
2024/01/28 09:58:41;;;;;;;67.45;62.58;;;;;;;2.70;100.00;102643.34;5061873;28;20072;-68
2024/01/28 10:01:11;;;;;;;67.25;62.75;;;;;;;2.56;100.00;102648.69;5066998;28;20505;-68
2024/01/28 10:03:38;;;;;;;63.75;59.15;;;;;;;3.05;100.00;102647.84;5065480;28;20048;-68
2024/01/28 10:06:05;;;;;;;63.65;58.85;;;;;;;2.88;100.00;102637.75;5065115;28;20052;-67
2024/01/28 10:08:34;;;;;;;61.97;57.08;;;;;;;2.73;100.00;102650.16;5065636;28;20681;-69
2024/01/28 10:11:02;;;;;;;51.80;48.08;;;;;;;2.50;100.00;102649.94;5067805;28;20052;-69
2024/01/28 10:13:29;;;;;;;52.72;48.92;;;;;;;2.60;100.00;102637.03;5064149;28;20145;-69
2024/01/28 10:15:57;;;;;;;50.88;47.22;;;;;;;2.67;100.00;102650.59;5063319;28;20082;-69
2024/01/28 10:18:24;;;;;;;54.83;51.00;;;;;;;2.76;100.00;102644.69;5062980;28;20589;-69
2024/01/28 10:20:51;;;;;;;60.80;56.40;;;;;;;3.17;100.00;102640.91;5065674;28;20053;-69
2024/01/28 10:23:18;;;;;;;63.83;58.70;;;;;;;4.07;100.00;102643.91;5059683;28;20037;-70
2024/01/28 10:25:48;;;;;;;55.05;51.08;;;;;;;4.01;100.00;102647.81;5066471;28;20056;-70
2024/01/28 10:28:17;;;;;;;63.28;58.53;;;;;;;4.56;100.00;102645.38;5063588;28;20456;-70
2024/01/28 10:30:44;;;;;;;66.55;59.58;;;;;;;4.50;100.00;102638.81;5066079;28;20488;-70
2024/01/28 10:33:11;;;;;;;57.47;52.90;;;;;;;4.24;100.00;102642.63;5065058;28;20048;-69
2024/01/28 10:35:38;;;;;;;54.15;50.10;;;;;;;3.05;100.00;102639.97;5062899;28;20661;-70
2024/01/28 10:38:11;;;;;;;61.85;57.45;;;;;;;4.10;100.00;102648.91;5060069;28;20054;-69
2024/01/28 10:40:45;;;;;;;61.22;56.72;;;;;;;4.05;100.00;102646.63;5067593;28;20080;-70
2024/01/28 10:43:16;;;;;;;59.38;54.92;;;;;;;3.89;100.00;102646.13;5065385;28;20135;-68
2024/01/28 10:45:44;;;;;;;54.97;51.42;;;;;;;3.71;100.00;102636.97;5066256;28;20063;-70
2024/01/28 10:48:17;;;;;;;67.70;63.42;;;;;;;4.83;100.00;102642.38;5063003;28;20071;-68
2024/01/28 10:50:44;;;;;;;66.45;62.15;;;;;;;4.56;100.00;102635.69;5064632;28;20444;-70
2024/01/28 10:53:13;;;;;;;62.70;58.70;;;;;;;4.42;100.00;102648.25;5064978;28;20044;-69
2024/01/28 10:55:43;;;;;;;62.45;58.35;;;;;;;4.96;100.00;102645.75;5066665;28;20463;-70
2024/01/28 10:58:11;;;;;;;56.92;53.13;;;;;;;5.08;100.00;102650.97;5065460;28;20134;-70
2024/01/28 11:00:40;;;;;;;57.45;52.70;;;;;;;4.20;100.00;102647.25;5063864;28;20075;-68
2024/01/28 11:03:08;;;;;;;54.00;50.35;;;;;;;4.08;100.00;102645.56;5065809;28;20231;-68
2024/01/28 11:05:36;;;;;;;58.08;54.28;;;;;;;4.11;100.00;102638.31;5061186;28;20056;-68